createdAt,value
2018-01-21T00:00:48.330Z,2.20
2018-01-21T00:03:19.028Z,1.90
2018-01-21T00:05:50.377Z,2.63
2018-01-21T00:08:21.839Z,3.03
2018-01-21T00:10:53.435Z,5.83
2018-01-21T00:13:24.646Z,3.70
2018-01-21T00:15:54.927Z,2.70
2018-01-21T00:18:24.373Z,3.20
2018-01-21T00:20:54.343Z,2.17
2018-01-21T00:23:25.917Z,2.73
2018-01-21T00:25:59.312Z,1.87
2018-01-21T00:28:28.734Z,2.57
2018-01-21T00:30:58.256Z,2.43
2018-01-21T00:33:27.791Z,2.20
2018-01-21T00:35:57.365Z,3.60
2018-01-21T00:38:27.558Z,2.60
2018-01-21T00:40:59.787Z,3.17
2018-01-21T00:43:30.412Z,3.77
2018-01-21T00:45:59.777Z,3.07
2018-01-21T00:48:29.980Z,2.70
2018-01-21T00:51:00.759Z,2.87
2018-01-21T00:53:32.313Z,2.67
2018-01-21T00:56:03.151Z,13.00
2018-01-21T00:58:33.360Z,6.20
2018-01-21T01:01:05.018Z,2.70
2018-01-21T01:03:35.588Z,3.00
2018-01-21T01:06:06.948Z,3.80
2018-01-21T01:08:37.381Z,2.60
2018-01-21T01:11:07.693Z,3.00
2018-01-21T01:13:37.164Z,4.00
2018-01-21T01:16:07.567Z,3.30
2018-01-21T01:18:38.065Z,3.20
2018-01-21T01:21:09.235Z,2.70
2018-01-21T01:23:41.165Z,2.40
2018-01-21T01:26:12.168Z,2.57
2018-01-21T01:28:44.884Z,3.70
2018-01-21T01:31:14.359Z,2.90
2018-01-21T01:33:43.845Z,2.93
2018-01-21T01:36:15.699Z,3.97
2018-01-21T01:38:45.805Z,3.20
2018-01-21T01:41:15.052Z,3.83
2018-01-21T01:43:44.301Z,2.80
2018-01-21T01:46:13.592Z,3.50
2018-01-21T01:48:55.702Z,3.00
2018-01-21T01:51:24.947Z,3.63
2018-01-21T01:53:54.182Z,3.27
2018-01-21T01:56:23.540Z,3.90
2018-01-21T01:58:52.785Z,3.90
2018-01-21T02:01:22.033Z,3.77
2018-01-21T02:03:52.054Z,4.17
2018-01-21T02:06:21.285Z,3.97
2018-01-21T02:08:50.513Z,3.90
2018-01-21T02:11:19.782Z,4.47
2018-01-21T02:13:49.016Z,4.60
2018-01-21T02:16:18.247Z,3.80
2018-01-21T02:18:48.251Z,5.47
2018-01-21T02:21:17.645Z,5.87
2018-01-21T02:23:46.881Z,4.77
2018-01-21T02:26:16.122Z,5.73
2018-01-21T02:28:45.366Z,6.13
2018-01-21T02:31:15.381Z,6.17
2018-01-21T02:33:44.612Z,5.70
2018-01-21T02:36:13.861Z,5.73
2018-01-21T02:38:43.090Z,6.40
2018-01-21T02:41:12.349Z,5.70
2018-01-21T02:43:41.580Z,5.20
2018-01-21T02:46:11.603Z,5.57
2018-01-21T02:48:40.853Z,3.90
2018-01-21T02:51:10.109Z,5.00
2018-01-21T02:53:40.126Z,4.70
2018-01-21T02:56:09.364Z,4.50
2018-01-21T02:58:38.642Z,4.60
2018-01-21T03:01:07.898Z,3.13
2018-01-21T03:03:37.132Z,4.83
2018-01-21T03:06:06.402Z,3.90
2018-01-21T03:08:35.639Z,3.33
2018-01-21T03:11:04.889Z,4.50
2018-01-21T03:13:34.128Z,4.47
2018-01-21T03:16:03.481Z,4.60
2018-01-21T03:18:32.705Z,5.20
2018-01-21T03:21:01.976Z,4.00
2018-01-21T03:23:31.204Z,3.07
2018-01-21T03:26:00.461Z,4.57
2018-01-21T03:28:29.691Z,3.40
2018-01-21T03:30:58.933Z,3.80
2018-01-21T03:33:28.992Z,3.00
2018-01-21T03:35:58.198Z,2.40
2018-01-21T03:38:27.458Z,2.90
2018-01-21T03:40:56.699Z,2.70
2018-01-21T03:43:25.952Z,3.23
2018-01-21T03:45:55.180Z,4.00
2018-01-21T03:48:24.426Z,3.33
2018-01-21T03:50:53.687Z,3.17
2018-01-21T03:53:22.922Z,4.03
2018-01-21T03:55:52.184Z,2.00
2018-01-21T03:58:21.412Z,2.03
2018-01-21T04:00:50.665Z,2.20
2018-01-21T04:03:19.894Z,3.10
2018-01-21T04:05:49.146Z,2.50
2018-01-21T04:08:19.140Z,2.73
2018-01-21T04:10:48.392Z,2.60
2018-01-21T04:13:17.617Z,2.07
2018-01-21T04:15:46.846Z,2.77
2018-01-21T04:18:16.105Z,2.83
2018-01-21T04:20:45.353Z,2.17
2018-01-21T04:23:14.606Z,2.90
2018-01-21T04:25:43.838Z,2.80
2018-01-21T04:28:13.085Z,2.70
2018-01-21T04:30:42.313Z,2.67
2018-01-21T04:33:11.556Z,3.10
2018-01-21T04:35:40.787Z,2.10
2018-01-21T04:38:10.024Z,2.50
2018-01-21T04:40:39.254Z,2.67
2018-01-21T04:43:08.493Z,2.60
2018-01-21T04:45:37.925Z,3.30
2018-01-21T04:48:07.160Z,3.60
2018-01-21T04:50:36.573Z,2.70
2018-01-21T04:53:06.680Z,4.17
2018-01-21T04:55:36.173Z,3.37
2018-01-21T04:58:05.554Z,3.40
2018-01-21T05:00:34.778Z,3.20
2018-01-21T05:03:04.019Z,3.73
2018-01-21T05:05:33.262Z,3.00
2018-01-21T05:08:02.487Z,2.40
2018-01-21T05:10:31.817Z,3.13
2018-01-21T05:13:01.173Z,2.60
2018-01-21T05:15:30.477Z,3.10
2018-01-21T05:17:59.710Z,2.90
2018-01-21T05:20:29.708Z,2.87
2018-01-21T05:22:58.965Z,2.77
2018-01-21T05:25:28.201Z,3.20
2018-01-21T05:27:57.466Z,2.93
2018-01-21T05:30:26.732Z,2.20
2018-01-21T05:32:55.989Z,2.80
2018-01-21T05:35:25.230Z,2.60
2018-01-21T05:37:55.246Z,2.80
2018-01-21T05:40:24.472Z,2.77
2018-01-21T05:42:53.745Z,2.40
2018-01-21T05:45:23.731Z,3.10
2018-01-21T05:47:52.973Z,2.47
2018-01-21T05:50:23.006Z,2.80
2018-01-21T05:52:52.232Z,2.27
2018-01-21T05:55:21.481Z,2.43
2018-01-21T05:57:51.176Z,2.80
2018-01-21T06:00:20.411Z,2.47
2018-01-21T06:02:49.652Z,2.30
2018-01-21T06:05:18.884Z,2.50
2018-01-21T06:07:48.145Z,1.90
2018-01-21T06:10:17.380Z,2.20
2018-01-21T06:12:46.799Z,2.30
2018-01-21T06:15:16.809Z,2.13
2018-01-21T06:17:46.097Z,3.20
2018-01-21T06:20:15.348Z,3.37
2018-01-21T06:22:44.582Z,3.40
2018-01-21T06:25:13.936Z,2.77
2018-01-21T06:27:43.172Z,2.80
2018-01-21T06:30:12.433Z,2.70
2018-01-21T06:32:41.665Z,3.87
2018-01-21T06:35:10.940Z,3.47
2018-01-21T06:37:40.188Z,1.97
2018-01-21T06:40:09.433Z,3.77
2018-01-21T06:42:39.470Z,4.00
2018-01-21T06:45:08.693Z,3.00
2018-01-21T06:47:37.954Z,2.33
2018-01-21T06:50:07.313Z,3.40
2018-01-21T06:52:36.590Z,3.97
2018-01-21T06:55:05.827Z,3.83
2018-01-21T06:57:35.058Z,4.33
2018-01-21T07:00:04.309Z,3.70
2018-01-21T07:02:33.559Z,3.80
2018-01-21T07:05:02.790Z,3.47
2018-01-21T07:07:32.038Z,4.03
2018-01-21T07:10:01.476Z,3.40
2018-01-21T07:12:30.712Z,4.80
2018-01-21T07:14:59.968Z,4.33
2018-01-21T07:17:29.240Z,4.10
2018-01-21T07:19:58.476Z,2.60
2018-01-21T07:22:27.728Z,4.50
2018-01-21T07:24:56.979Z,5.50
2018-01-21T07:27:26.212Z,4.23
2018-01-21T07:29:55.460Z,4.67
2018-01-21T07:32:24.680Z,4.50
2018-01-21T07:34:54.173Z,5.13
2018-01-21T07:37:23.432Z,6.07
2018-01-21T07:39:52.677Z,5.37
2018-01-21T07:42:21.940Z,4.77
2018-01-21T07:44:51.178Z,4.70
2018-01-21T07:47:20.429Z,4.70
2018-01-21T07:49:49.659Z,5.30
2018-01-21T07:52:18.901Z,4.13
2018-01-21T07:54:48.139Z,3.50
2018-01-21T07:57:17.366Z,4.10
2018-01-21T07:59:46.621Z,4.53
2018-01-21T08:02:15.877Z,6.00
2018-01-21T08:04:45.072Z,5.63
2018-01-21T08:07:14.323Z,5.20
2018-01-21T08:09:43.555Z,5.77
2018-01-21T08:12:13.639Z,4.80
2018-01-21T08:14:42.975Z,13.83
2018-01-21T08:17:12.992Z,5.63
2018-01-21T08:19:42.220Z,9.83
2018-01-21T08:22:11.709Z,7.20
2018-01-21T08:24:42.801Z,7.00
2018-01-21T08:27:12.039Z,5.63
2018-01-21T08:29:41.267Z,3.50
2018-01-21T08:32:10.536Z,4.13
2018-01-21T08:34:45.354Z,3.77
2018-01-21T08:37:20.112Z,3.47
2018-01-21T08:39:55.394Z,3.57
2018-01-21T08:42:28.148Z,3.80
2018-01-21T08:44:57.412Z,3.50
2018-01-21T08:47:26.678Z,4.10
2018-01-21T08:49:55.965Z,4.73
2018-01-21T08:52:25.235Z,3.70
2018-01-21T08:54:54.564Z,3.10
2018-01-21T08:57:23.845Z,3.00
2018-01-21T08:59:53.927Z,3.90
2018-01-21T09:02:23.157Z,3.30
2018-01-21T09:04:53.156Z,2.23
2018-01-21T09:07:23.238Z,3.33
2018-01-21T09:09:53.229Z,2.60
2018-01-21T09:12:22.501Z,2.47
2018-01-21T09:14:52.519Z,2.60
2018-01-21T09:17:21.812Z,2.20
2018-01-21T09:19:51.058Z,2.83
2018-01-21T09:22:20.321Z,1.60
2018-01-21T09:24:50.558Z,2.77
2018-01-21T09:27:20.591Z,2.80
2018-01-21T09:29:49.902Z,2.40
2018-01-21T09:32:19.141Z,2.03
2018-01-21T09:34:48.704Z,2.33
2018-01-21T09:37:17.952Z,2.23
2018-01-21T09:39:47.998Z,2.63
2018-01-21T09:42:18.034Z,2.53
2018-01-21T09:44:47.274Z,2.33
2018-01-21T09:47:16.585Z,2.27
2018-01-21T09:49:46.502Z,2.93
2018-01-21T09:52:15.821Z,2.47
2018-01-21T09:54:45.074Z,2.47
2018-01-21T09:57:14.543Z,3.10
2018-01-21T09:59:43.928Z,1.90
2018-01-21T10:02:13.847Z,2.73
2018-01-21T10:04:43.106Z,3.57
2018-01-21T10:07:12.413Z,2.90
2018-01-21T10:09:41.711Z,2.37
2018-01-21T10:12:10.960Z,1.60
2018-01-21T10:14:40.282Z,2.00
2018-01-21T10:17:10.369Z,2.30
2018-01-21T10:19:39.639Z,2.03
2018-01-21T10:22:08.874Z,2.57
2018-01-21T10:24:39.663Z,2.70
2018-01-21T10:27:08.909Z,3.00
2018-01-21T10:29:38.209Z,2.20
2018-01-21T10:32:07.447Z,2.10
2018-01-21T10:34:36.709Z,3.27
2018-01-21T10:37:05.953Z,2.10
2018-01-21T10:39:35.248Z,1.67
2018-01-21T10:42:04.776Z,1.80
2018-01-21T10:44:34.026Z,8.70
2018-01-21T10:47:03.470Z,5.40
2018-01-21T10:49:32.721Z,1.93
2018-01-21T10:52:02.008Z,1.90
2018-01-21T10:54:31.481Z,1.10
2018-01-21T10:57:00.768Z,1.40
2018-01-21T10:59:30.060Z,1.77
2018-01-21T11:01:59.304Z,1.60
2018-01-21T11:04:28.648Z,0.80
2018-01-21T11:06:57.926Z,1.40
2018-01-21T11:09:27.196Z,1.40
2018-01-21T11:11:56.456Z,1.10
2018-01-21T11:14:26.759Z,1.50
2018-01-21T11:16:56.029Z,0.97
2018-01-21T11:19:25.325Z,2.53
2018-01-21T11:21:58.518Z,1.60
2018-01-21T11:24:27.841Z,1.20
2018-01-21T11:26:57.117Z,1.40
2018-01-21T11:29:26.397Z,1.27
2018-01-21T11:31:55.687Z,1.00
2018-01-21T11:34:25.020Z,1.27
2018-01-21T11:36:54.313Z,1.50
2018-01-21T11:39:23.614Z,0.90
2018-01-21T11:41:52.874Z,1.80
2018-01-21T11:44:22.288Z,1.33
2018-01-21T11:46:51.518Z,1.70
2018-01-21T11:49:20.781Z,1.40
2018-01-21T11:51:50.209Z,1.57
2018-01-21T11:54:19.590Z,1.40
2018-01-21T11:56:48.877Z,1.30
2018-01-21T11:59:18.136Z,0.90
2018-01-21T12:01:47.410Z,1.87
2018-01-21T12:04:17.438Z,1.60
2018-01-21T12:06:46.700Z,2.73
2018-01-21T12:09:16.051Z,1.50
2018-01-21T12:11:45.301Z,1.57
2018-01-21T12:14:14.593Z,1.60
2018-01-21T12:16:43.855Z,1.20
2018-01-21T12:19:13.209Z,0.90
2018-01-21T12:21:42.502Z,1.30
2018-01-21T12:24:11.761Z,1.17
2018-01-21T12:26:41.031Z,0.90
2018-01-21T12:29:10.260Z,1.50
2018-01-21T12:31:39.534Z,1.47
2018-01-21T12:34:08.801Z,1.17
2018-01-21T12:36:38.101Z,1.33
2018-01-21T12:39:07.340Z,1.20
2018-01-21T12:41:37.361Z,1.10
2018-01-21T12:44:07.367Z,1.83
2018-01-21T12:46:36.609Z,1.20
2018-01-21T12:49:05.867Z,1.43
2018-01-21T12:51:35.884Z,1.67
2018-01-21T12:54:05.949Z,1.37
2018-01-21T12:56:35.186Z,1.47
2018-01-21T12:59:04.440Z,2.33
2018-01-21T13:01:33.701Z,1.70
2018-01-21T13:04:02.972Z,1.70
2018-01-21T13:06:32.258Z,1.43
2018-01-21T13:09:01.485Z,1.87
2018-01-21T13:11:30.872Z,1.10
2018-01-21T13:14:00.128Z,8.13
2018-01-21T13:16:29.388Z,17.13
2018-01-21T13:18:58.644Z,3.20
2018-01-21T13:21:27.879Z,2.23
2018-01-21T13:23:57.142Z,3.00
2018-01-21T13:26:26.373Z,2.20
2018-01-21T13:28:55.665Z,2.63
2018-01-21T13:31:24.894Z,3.30
2018-01-21T13:33:54.150Z,1.53
2018-01-21T13:36:23.404Z,2.17
2018-01-21T13:38:52.656Z,2.07
2018-01-21T13:41:22.078Z,4.83
2018-01-21T13:43:51.332Z,4.30
2018-01-21T13:46:20.585Z,1.90
2018-01-21T13:48:49.824Z,2.13
2018-01-21T13:51:19.062Z,2.40
2018-01-21T13:53:48.289Z,1.50
2018-01-21T13:56:17.699Z,3.07
2018-01-21T13:58:46.933Z,2.10
2018-01-21T14:01:16.270Z,2.13
2018-01-21T14:03:45.543Z,2.03
2018-01-21T14:06:14.769Z,2.23
2018-01-21T14:08:44.029Z,1.40
2018-01-21T14:11:13.283Z,2.10
2018-01-21T14:13:42.509Z,1.90
2018-01-21T14:16:11.756Z,2.43
2018-01-21T14:18:41.008Z,1.50
2018-01-21T14:21:10.267Z,3.53
2018-01-21T14:23:39.502Z,2.40
2018-01-21T14:26:08.757Z,2.60
2018-01-21T14:28:37.997Z,1.83
2018-01-21T14:31:07.253Z,2.77
2018-01-21T14:33:36.497Z,1.83
2018-01-21T14:36:05.901Z,3.10
2018-01-21T14:38:35.128Z,5.93
2018-01-21T14:41:04.377Z,2.40
2018-01-21T14:43:33.626Z,1.20
2018-01-21T14:46:02.861Z,4.23
2018-01-21T14:48:32.115Z,2.00
2018-01-21T14:51:01.353Z,1.97
2018-01-21T14:53:31.345Z,1.47
2018-01-21T14:56:00.585Z,1.70
2018-01-21T14:58:29.833Z,1.60
2018-01-21T15:00:59.104Z,1.93
2018-01-21T15:03:29.201Z,1.80
2018-01-21T15:05:58.456Z,1.70
2018-01-21T15:08:27.735Z,1.30
2018-01-21T15:10:56.976Z,1.70
2018-01-21T15:13:27.045Z,1.10
2018-01-21T15:15:56.229Z,1.67
2018-01-21T15:18:25.497Z,1.80
2018-01-21T15:20:54.733Z,1.80
2018-01-21T15:23:24.017Z,1.60
2018-01-21T15:25:53.266Z,2.07
2018-01-21T15:28:22.541Z,1.60
2018-01-21T15:30:51.776Z,1.57
2018-01-21T15:33:21.035Z,1.73
2018-01-21T15:35:50.296Z,2.20
2018-01-21T15:38:21.037Z,1.37
2018-01-21T15:40:50.310Z,1.37
2018-01-21T15:43:19.561Z,1.50
2018-01-21T15:45:48.844Z,1.30
2018-01-21T15:48:18.082Z,1.50
2018-01-21T15:50:48.200Z,1.40
2018-01-21T15:53:17.454Z,1.50
2018-01-21T15:55:46.698Z,1.30
2018-01-21T15:58:15.936Z,1.90
2018-01-21T16:00:45.266Z,1.60
2018-01-21T16:03:15.306Z,1.53
2018-01-21T16:05:44.550Z,1.97
2018-01-21T16:08:13.815Z,1.83
2018-01-21T16:10:43.075Z,1.77
2018-01-21T16:13:12.306Z,1.10
2018-01-21T16:15:41.642Z,1.70
2018-01-21T16:18:11.110Z,1.60
2018-01-21T16:20:40.457Z,1.50
2018-01-21T16:23:09.712Z,1.20
2018-01-21T16:25:38.968Z,1.47
2018-01-21T16:28:08.235Z,1.57
2018-01-21T16:30:37.508Z,1.43
2018-01-21T16:33:07.534Z,1.10
2018-01-21T16:35:36.932Z,1.83
2018-01-21T16:38:24.637Z,1.50
2018-01-21T16:40:53.869Z,1.67
2018-01-21T16:43:23.128Z,1.57
2018-01-21T16:45:52.372Z,1.63
2018-01-21T16:48:21.628Z,2.47
2018-01-21T16:50:50.866Z,1.43
2018-01-21T16:53:20.102Z,1.33
2018-01-21T16:55:49.353Z,1.37
2018-01-21T16:58:18.590Z,1.43
2018-01-21T17:00:47.830Z,1.47
2018-01-21T17:03:17.097Z,1.70
2018-01-21T17:05:46.357Z,1.40
2018-01-21T17:08:15.642Z,2.03
2018-01-21T17:10:44.847Z,1.17
2018-01-21T17:13:14.865Z,1.97
2018-01-21T17:15:44.101Z,1.87
2018-01-21T17:18:13.361Z,1.77
2018-01-21T17:20:42.647Z,1.40
2018-01-21T17:23:11.889Z,1.67
2018-01-21T17:25:41.904Z,1.53
2018-01-21T17:28:11.149Z,1.40
2018-01-21T17:30:40.376Z,1.50
2018-01-21T17:33:09.629Z,2.00
2018-01-21T17:35:38.867Z,1.80
2018-01-21T17:38:08.314Z,1.30
2018-01-21T17:40:38.305Z,1.80
2018-01-21T17:43:07.568Z,1.70
2018-01-21T17:45:36.864Z,2.70
2018-01-21T17:48:06.865Z,1.80
2018-01-21T17:50:36.111Z,1.70
2018-01-21T17:53:05.364Z,1.43
2018-01-21T17:55:35.476Z,1.60
2018-01-21T17:58:04.721Z,2.67
2018-01-21T18:00:33.985Z,1.33
2018-01-21T18:03:03.229Z,2.00
2018-01-21T18:05:32.527Z,1.70
2018-01-21T18:08:01.798Z,1.50
2018-01-21T18:10:31.071Z,1.77
2018-01-21T18:13:01.057Z,1.50
2018-01-21T18:15:30.408Z,1.70
2018-01-21T18:17:59.645Z,3.80
2018-01-21T18:20:29.790Z,3.03
2018-01-21T18:22:59.061Z,2.30
2018-01-21T18:25:28.293Z,2.57
2018-01-21T18:27:57.583Z,2.30
2018-01-21T18:30:26.842Z,2.80
2018-01-21T18:32:56.078Z,1.93
2018-01-21T18:35:25.339Z,2.80
2018-01-21T18:37:54.597Z,3.57
2018-01-21T18:40:23.849Z,2.47
2018-01-21T18:42:53.120Z,2.20
2018-01-21T18:45:22.378Z,2.10
2018-01-21T18:47:51.634Z,1.90
2018-01-21T18:50:20.879Z,2.80
2018-01-21T18:52:50.132Z,2.70
2018-01-21T18:55:19.367Z,2.10
2018-01-21T18:57:48.609Z,4.10
2018-01-21T19:00:19.369Z,10.37
2018-01-21T19:02:48.813Z,1.93
2018-01-21T19:05:18.107Z,4.20
2018-01-21T19:07:47.367Z,2.40
2018-01-21T19:10:16.583Z,1.53
2018-01-21T19:12:45.868Z,3.00
2018-01-21T19:15:15.890Z,2.23
2018-01-21T19:17:45.721Z,2.67
2018-01-21T19:20:14.965Z,2.33
2018-01-21T19:22:44.229Z,3.23
2018-01-21T19:25:13.480Z,2.70
2018-01-21T19:27:42.748Z,2.60
2018-01-21T19:30:11.998Z,2.83
2018-01-21T19:32:42.006Z,2.10
2018-01-21T19:35:11.292Z,2.10
2018-01-21T19:37:40.518Z,2.73
2018-01-21T19:40:28.261Z,1.50
2018-01-21T19:43:02.859Z,2.47
2018-01-21T19:45:32.156Z,2.57
2018-01-21T19:48:01.547Z,2.00
2018-01-21T19:50:30.839Z,2.50
2018-01-21T19:53:00.293Z,2.03
2018-01-21T19:55:29.522Z,2.60
2018-01-21T19:57:58.802Z,1.83
2018-01-21T20:00:28.073Z,2.77
2018-01-21T20:02:57.335Z,3.10
2018-01-21T20:05:26.593Z,2.83
2018-01-21T20:07:55.801Z,2.30
2018-01-21T20:10:25.092Z,2.07
2018-01-21T20:13:15.804Z,2.40
2018-01-21T20:15:45.044Z,2.83
2018-01-21T20:18:14.302Z,1.80
2018-01-21T20:20:43.564Z,2.70
2018-01-21T20:23:12.870Z,2.00
2018-01-21T20:25:42.119Z,3.87
2018-01-21T20:28:11.376Z,4.83
2018-01-21T20:30:40.610Z,4.53
2018-01-21T20:33:09.838Z,5.27
2018-01-21T20:35:39.119Z,6.03
2018-01-21T20:38:08.446Z,9.43
2018-01-21T20:40:37.654Z,5.17
2018-01-21T20:43:06.962Z,2.60
2018-01-21T20:45:36.205Z,2.50
2018-01-21T20:48:05.513Z,2.70
2018-01-21T20:50:35.506Z,1.80
2018-01-21T20:53:11.778Z,2.20
2018-01-21T20:55:41.781Z,2.90
2018-01-21T20:58:11.066Z,3.30
2018-01-21T21:00:40.317Z,2.37
2018-01-21T21:03:09.625Z,4.27
2018-01-21T21:05:38.905Z,2.60
2018-01-21T21:08:08.165Z,2.77
2018-01-21T21:10:37.441Z,6.00
2018-01-21T21:13:06.717Z,3.23
2018-01-21T21:15:36.742Z,2.10
2018-01-21T21:18:06.014Z,4.80
2018-01-21T21:20:35.972Z,3.23
2018-01-21T21:23:05.286Z,2.43
2018-01-21T21:25:34.652Z,2.67
2018-01-21T21:28:03.972Z,2.73
2018-01-21T21:30:33.266Z,2.50
2018-01-21T21:33:03.459Z,2.57
2018-01-21T21:35:32.692Z,2.20
2018-01-21T21:38:02.729Z,2.57
2018-01-21T21:40:32.048Z,2.03
2018-01-21T21:43:01.361Z,2.30
2018-01-21T21:45:30.605Z,2.30
2018-01-21T21:47:59.888Z,2.50
2018-01-21T21:50:29.182Z,2.70
2018-01-21T21:52:58.410Z,2.80
2018-01-21T21:55:27.641Z,3.90
2018-01-21T21:57:56.904Z,3.50
2018-01-21T22:00:26.148Z,2.80
2018-01-21T22:02:55.394Z,3.33
2018-01-21T22:05:24.613Z,3.00
2018-01-21T22:07:54.037Z,2.80
2018-01-21T22:10:23.297Z,3.40
2018-01-21T22:12:53.294Z,3.70
2018-01-21T22:15:22.722Z,2.70
2018-01-21T22:17:52.709Z,4.83
2018-01-21T22:20:22.140Z,3.50
2018-01-21T22:22:52.152Z,3.30
2018-01-21T22:25:21.453Z,3.60
2018-01-21T22:27:50.808Z,3.47
2018-01-21T22:30:20.055Z,2.90
2018-01-21T22:32:49.328Z,3.80
2018-01-21T22:35:18.582Z,3.50
2018-01-21T22:37:47.828Z,3.93
2018-01-21T22:40:17.066Z,4.60
2018-01-21T22:42:46.350Z,4.13
2018-01-21T22:45:15.606Z,3.10
2018-01-21T22:47:44.865Z,3.53
2018-01-21T22:50:15.075Z,4.60
2018-01-21T22:52:44.412Z,3.90
2018-01-21T22:55:13.688Z,4.43
2018-01-21T22:57:42.893Z,4.17
2018-01-21T23:00:12.905Z,5.13
2018-01-21T23:02:42.932Z,5.40
2018-01-21T23:05:13.030Z,4.67
2018-01-21T23:07:42.453Z,5.57
2018-01-21T23:10:12.000Z,5.30
2018-01-21T23:12:41.200Z,7.37
2018-01-21T23:15:10.454Z,8.90
2018-01-21T23:17:40.472Z,7.40
2018-01-21T23:20:09.716Z,6.00
2018-01-21T23:22:39.025Z,6.87
2018-01-21T23:25:08.261Z,6.50
2018-01-21T23:27:37.553Z,6.33
2018-01-21T23:30:06.763Z,6.27
2018-01-21T23:32:36.005Z,6.87
2018-01-21T23:35:05.258Z,6.90
2018-01-21T23:37:34.506Z,6.80
2018-01-21T23:40:04.392Z,6.20
2018-01-21T23:42:33.637Z,6.80
2018-01-21T23:45:02.902Z,7.10
2018-01-21T23:47:32.900Z,7.70
2018-01-21T23:50:02.145Z,7.00
2018-01-21T23:52:31.420Z,7.33
2018-01-21T23:55:01.429Z,7.30
2018-01-21T23:57:30.816Z,7.97
